createdAt,value
2022-12-01T00:04:24.156Z,1020.08
2022-12-01T00:19:40.151Z,1020.19
2022-12-01T00:34:56.123Z,1020.1
2022-12-01T00:50:12.087Z,1019.99
2022-12-01T01:05:29.038Z,1020.18
2022-12-01T01:20:45.025Z,1020.13
2022-12-01T01:36:00.999Z,1020.34
2022-12-01T01:51:17.975Z,1020.24
2022-12-01T01:51:58.817Z,1020.24
2022-12-01T02:06:35.932Z,1020.32
2022-12-01T02:21:52.924Z,1020.29
2022-12-01T02:37:09.870Z,1020.37
2022-12-01T02:52:25.810Z,1020.23
2022-12-01T03:07:42.830Z,1020.21
2022-12-01T03:22:58.740Z,1020.21
2022-12-01T03:38:14.746Z,1020.18
2022-12-01T03:53:30.672Z,1020.26
2022-12-01T04:08:48.695Z,1020.29
2022-12-01T04:24:05.624Z,1020.26
2022-12-01T04:39:22.621Z,1020.21
2022-12-01T04:54:38.564Z,1020.18
2022-12-01T05:09:55.548Z,1020.23
2022-12-01T05:25:11.491Z,1020.37
2022-12-01T05:40:27.501Z,1020.43
2022-12-01T05:55:44.430Z,1020.48
2022-12-01T06:11:02.463Z,1020.51
2022-12-01T06:26:19.369Z,1020.68
2022-12-01T06:41:35.391Z,1020.76
2022-12-01T06:56:51.309Z,1020.84
2022-12-01T07:12:08.320Z,1021
2022-12-01T07:27:24.276Z,1021.14
2022-12-01T07:42:40.205Z,1021.23
2022-12-01T07:57:57.238Z,1021.4
2022-12-01T08:13:17.404Z,1021.45
2022-12-01T08:28:32.172Z,1021.4
2022-12-01T08:43:59.609Z,1021.31
2022-12-01T08:59:04.089Z,1021.39
2022-12-01T09:14:23.042Z,1021.59
2022-12-01T09:29:40.003Z,1021.58
2022-12-01T09:44:55.952Z,1021.53
2022-12-01T10:00:11.930Z,1021.42
2022-12-01T10:15:28.887Z,1021.39
2022-12-01T10:30:44.869Z,1021.16
2022-12-01T10:46:00.941Z,1021.13
2022-12-01T11:01:17.945Z,1021.11
2022-12-01T11:16:35.847Z,1021.05
2022-12-01T11:31:52.875Z,1020.97
2022-12-01T11:47:22.657Z,1021
2022-12-01T12:02:24.731Z,1020.92
2022-12-01T12:17:41.721Z,1020.75
2022-12-01T12:32:57.628Z,1020.72
2022-12-01T12:48:14.638Z,1020.67
2022-12-01T13:03:34.128Z,1020.67
2022-12-01T13:18:49.587Z,1020.56
2022-12-01T13:34:06.510Z,1020.4
2022-12-01T13:49:23.534Z,1020.45
2022-12-01T14:04:45.872Z,1020.37
2022-12-01T14:19:56.435Z,1020.17
2022-12-01T14:35:12.405Z,1020.42
2022-12-01T14:50:28.395Z,1020.33
2022-12-01T15:05:45.329Z,1020.3
2022-12-01T15:21:01.334Z,1020.38
2022-12-01T15:36:17.314Z,1020.3
2022-12-01T15:51:34.276Z,1020.3
2022-12-01T16:06:52.197Z,1020.27
2022-12-01T16:22:09.178Z,1020.38
2022-12-01T16:37:25.167Z,1020.32
2022-12-01T16:52:45.290Z,1020.41
2022-12-01T16:53:25.978Z,1020.41
2022-12-01T17:07:59.174Z,1020.54
2022-12-01T17:23:15.066Z,1020.52
2022-12-01T17:38:32.074Z,1020.65
2022-12-01T17:53:48.984Z,1020.71
2022-12-01T18:09:05.953Z,1020.68
2022-12-01T18:24:21.954Z,1020.63
2022-12-01T18:39:37.961Z,1020.68
2022-12-01T18:54:53.881Z,1020.71
2022-12-01T19:10:10.834Z,1020.71
2022-12-01T19:25:27.801Z,1020.74
2022-12-01T19:40:44.802Z,1020.68
2022-12-01T19:56:00.752Z,1020.63
2022-12-01T20:11:17.723Z,1020.66
2022-12-01T20:26:33.687Z,1020.71
2022-12-01T20:41:49.681Z,1020.63
2022-12-01T20:57:05.634Z,1020.63
2022-12-01T21:12:22.606Z,1020.66
2022-12-01T21:27:39.592Z,1020.74
2022-12-01T21:42:56.536Z,1020.77
2022-12-01T21:58:12.542Z,1020.79
2022-12-01T22:13:29.465Z,1020.79
2022-12-01T22:28:45.476Z,1020.79
2022-12-01T22:44:01.405Z,1020.77
2022-12-01T22:59:17.377Z,1020.85
2022-12-01T23:14:34.362Z,1020.88
2022-12-01T23:29:51.304Z,1020.9
2022-12-01T23:45:08.287Z,1020.77
